Time;durP1;ratioP1;P1;durP2;ratioP2;P2;SDS_P1;SDS_P2;PMS_P1;PMS_P2;Temp;Humidity;BMP_temperature;BMP_pressure;BME280_temperature;BME280_humidity;BME280_pressure;Samples;Min_cycle;Max_cycle;Signal;HPM_P1;HPM_P2
2020/12/04 00:00:10;;;;;;;1999.90;999.90;;;5.40;99.90;;;;;;5095387;28;20105;-86
2020/12/04 00:02:39;;;;;;;1999.90;999.90;;;5.40;99.90;;;;;;5095305;28;20608;-85
2020/12/04 00:05:07;;;;;;;1999.90;999.90;;;5.40;99.90;;;;;;5094593;28;20048;-86
2020/12/04 00:07:35;;;;;;;1999.90;999.90;;;5.40;99.90;;;;;;5086629;28;20048;-86
2020/12/04 00:10:03;;;;;;;1999.90;999.90;;;5.40;99.90;;;;;;5095101;28;20055;-85
2020/12/04 00:12:30;;;;;;;1999.90;999.90;;;5.30;99.90;;;;;;5093969;28;20047;-85
2020/12/04 00:14:57;;;;;;;1999.90;999.90;;;5.30;99.90;;;;;;5094936;28;20106;-86
2020/12/04 00:17:23;;;;;;;1999.90;999.90;;;5.40;99.90;;;;;;5096218;28;20048;-86
2020/12/04 00:19:51;;;;;;;1999.90;999.90;;;5.30;99.90;;;;;;5093722;28;20059;-85
2020/12/04 00:22:18;;;;;;;1999.90;999.90;;;5.30;99.90;;;;;;5094551;28;20101;-85
2020/12/04 00:24:45;;;;;;;1999.90;999.90;;;5.40;99.90;;;;;;5094948;28;20055;-86
2020/12/04 00:27:12;;;;;;;1999.90;999.90;;;5.40;99.90;;;;;;5093754;28;20048;-85
2020/12/04 00:29:39;;;;;;;1999.90;999.90;;;5.40;99.90;;;;;;5094483;28;20052;-86
2020/12/04 00:32:06;;;;;;;1999.90;999.90;;;5.30;99.90;;;;;;5091832;28;20040;-86
2020/12/04 00:34:33;;;;;;;1999.90;999.90;;;5.30;99.90;;;;;;5094011;28;20102;-85
2020/12/04 00:37:01;;;;;;;1999.90;999.90;;;5.30;99.90;;;;;;5095460;28;20133;-85
2020/12/04 00:39:28;;;;;;;1999.90;999.90;;;5.30;99.90;;;;;;5094180;28;20051;-86
2020/12/04 00:41:58;;;;;;;1999.90;999.90;;;5.30;99.90;;;;;;5094207;28;20093;-85
2020/12/04 00:44:25;;;;;;;1999.90;999.90;;;5.30;99.90;;;;;;5094451;28;20120;-85
2020/12/04 00:46:53;;;;;;;1999.90;999.90;;;5.40;99.90;;;;;;5094635;28;20063;-85
2020/12/04 00:49:19;;;;;;;1999.90;999.90;;;5.30;99.90;;;;;;5094437;28;20733;-85
2020/12/04 00:51:46;;;;;;;1999.90;999.90;;;5.30;99.90;;;;;;5094348;28;20113;-85
2020/12/04 00:54:14;;;;;;;1999.90;999.90;;;5.30;99.90;;;;;;5093882;28;20051;-84
2020/12/04 00:56:41;;;;;;;1999.90;999.90;;;5.30;99.90;;;;;;5094218;28;20478;-86
2020/12/04 00:59:08;;;;;;;1999.90;999.90;;;5.30;99.90;;;;;;5093874;28;20044;-85
2020/12/04 01:01:35;;;;;;;1999.90;999.90;;;5.30;99.90;;;;;;5094713;28;20073;-85
2020/12/04 01:04:02;;;;;;;1999.90;999.90;;;5.30;99.90;;;;;;5093641;28;20113;-86
2020/12/04 01:06:29;;;;;;;1999.90;999.90;;;5.30;99.90;;;;;;5094892;28;20401;-86
2020/12/04 01:08:56;;;;;;;1999.90;999.90;;;5.30;99.90;;;;;;5092874;28;20101;-86
2020/12/04 01:11:25;;;;;;;1999.90;999.90;;;5.30;99.90;;;;;;5093906;28;20044;-86
2020/12/04 01:13:53;;;;;;;1999.90;999.90;;;5.30;99.90;;;;;;5093791;28;20056;-86
2020/12/04 01:16:19;;;;;;;1999.90;999.90;;;5.40;99.90;;;;;;5094124;28;20052;-86
2020/12/04 01:18:46;;;;;;;1999.90;999.90;;;5.40;99.90;;;;;;5093800;28;20105;-86
2020/12/04 01:21:13;;;;;;;1999.90;999.90;;;5.30;99.90;;;;;;5094108;28;20052;-86
2020/12/04 01:23:41;;;;;;;1999.90;999.90;;;5.30;99.90;;;;;;5092809;28;20085;-86
2020/12/04 01:26:08;;;;;;;1999.90;999.90;;;5.30;99.90;;;;;;5093758;28;20051;-86
2020/12/04 01:28:36;;;;;;;1999.90;999.90;;;5.30;99.90;;;;;;5093754;28;20052;-86
2020/12/04 01:31:04;;;;;;;1999.90;999.90;;;5.30;99.90;;;;;;5094231;28;20052;-86
2020/12/04 01:33:32;;;;;;;1999.90;999.90;;;5.30;99.90;;;;;;5089179;28;20066;-86
2020/12/04 01:35:59;;;;;;;1999.90;999.90;;;5.30;99.90;;;;;;5093129;28;20498;-86
2020/12/04 01:38:26;;;;;;;1999.90;999.90;;;5.30;99.90;;;;;;5093935;28;20044;-85
2020/12/04 01:40:58;;;;;;;1999.90;999.90;;;5.30;99.90;;;;;;5080975;28;20059;-86
2020/12/04 01:43:24;;;;;;;1999.90;999.90;;;5.30;99.90;;;;;;5093879;28;20048;-86
2020/12/04 01:45:53;;;;;;;1999.90;999.90;;;5.30;99.90;;;;;;5093608;28;20074;-86
2020/12/04 01:48:20;;;;;;;1999.90;999.90;;;5.20;99.90;;;;;;5093750;28;20044;-86
2020/12/04 01:50:50;;;;;;;1999.90;999.90;;;5.30;99.90;;;;;;5081246;28;20486;-86
2020/12/04 01:53:17;;;;;;;1999.90;999.90;;;5.30;99.90;;;;;;5092769;28;20097;-86
2020/12/04 01:55:45;;;;;;;1999.90;999.90;;;5.20;99.90;;;;;;5095313;28;20406;-86
2020/12/04 01:58:12;;;;;;;1999.90;999.90;;;5.20;99.90;;;;;;5092591;28;20040;-86
2020/12/04 02:00:39;;;;;;;1999.90;999.90;;;5.20;99.90;;;;;;5094040;28;20102;-86
2020/12/04 02:03:09;;;;;;;1999.90;999.90;;;5.30;99.90;;;;;;5091334;28;20131;-86
2020/12/04 02:05:42;;;;;;;1999.90;999.90;;;5.20;99.90;;;;;;5092780;28;20052;-86
2020/12/04 02:08:20;;;;;;;1999.90;999.90;;;5.30;99.90;;;;;;5092736;28;20056;-86
2020/12/04 02:10:52;;;;;;;1999.90;999.90;;;5.30;99.90;;;;;;5093264;28;20131;-86
2020/12/04 02:13:20;;;;;;;1999.90;999.90;;;5.30;99.90;;;;;;5092924;28;20135;-87
2020/12/04 02:15:47;;;;;;;1999.90;999.90;;;5.20;99.90;;;;;;5092700;28;20079;-87
2020/12/04 02:18:15;;;;;;;1999.90;999.90;;;5.20;99.90;;;;;;5092699;28;20044;-85
2020/12/04 02:20:42;;;;;;;1999.90;999.90;;;5.20;99.90;;;;;;5093116;28;20052;-86
2020/12/04 02:23:11;;;;;;;1999.90;999.90;;;5.30;99.90;;;;;;5092902;28;20052;-86
2020/12/04 02:25:39;;;;;;;1999.90;999.90;;;5.20;99.90;;;;;;5093328;28;20071;-87
2020/12/04 02:28:06;;;;;;;1999.90;999.90;;;5.30;99.90;;;;;;5092715;28;20127;-87
2020/12/04 02:30:36;;;;;;;1999.90;999.90;;;5.20;99.90;;;;;;5093574;28;20060;-86
2020/12/04 02:33:03;;;;;;;1999.90;999.90;;;5.30;99.90;;;;;;5092256;28;20052;-87
2020/12/04 02:35:30;;;;;;;1999.90;999.90;;;5.30;99.90;;;;;;5092342;28;20075;-86
2020/12/04 02:37:58;;;;;;;1999.90;999.90;;;5.30;99.90;;;;;;5091127;28;20432;-87
2020/12/04 02:40:25;;;;;;;1999.90;999.90;;;5.30;99.90;;;;;;5092552;28;20131;-86
2020/12/04 02:42:54;;;;;;;1999.90;999.90;;;5.20;99.90;;;;;;5092489;28;20075;-86
2020/12/04 02:45:21;;;;;;;1999.90;999.90;;;5.30;99.90;;;;;;5093248;28;20056;-87
2020/12/04 02:47:48;;;;;;;1999.90;999.90;;;5.30;99.90;;;;;;5093149;28;20051;-86
2020/12/04 02:50:15;;;;;;;1999.90;999.90;;;5.20;99.90;;;;;;5091250;28;20474;-86
2020/12/04 02:52:41;;;;;;;1999.90;999.90;;;5.20;99.90;;;;;;5092400;28;20138;-86
2020/12/04 02:55:09;;;;;;;1999.90;999.90;;;5.20;99.90;;;;;;5092388;28;20048;-86
2020/12/04 02:57:36;;;;;;;1999.90;999.90;;;5.20;99.90;;;;;;5092229;28;20075;-86
2020/12/04 03:00:05;;;;;;;1999.90;999.90;;;5.20;99.90;;;;;;5091311;28;20075;-87
2020/12/04 03:02:32;;;;;;;1999.90;999.90;;;5.20;99.90;;;;;;5092340;28;20067;-86
2020/12/04 03:04:58;;;;;;;1999.90;999.90;;;5.20;99.90;;;;;;5092532;28;20040;-86
2020/12/04 03:07:25;;;;;;;1999.90;999.90;;;5.20;99.90;;;;;;5091670;28;20555;-86
2020/12/04 03:09:52;;;;;;;1999.90;999.90;;;5.20;99.90;;;;;;5092614;28;20119;-86
2020/12/04 03:12:20;;;;;;;1999.90;999.90;;;5.20;99.90;;;;;;5091822;28;20052;-86
2020/12/04 03:14:47;;;;;;;1999.90;999.90;;;5.20;99.90;;;;;;5091061;28;20239;-87
2020/12/04 03:17:14;;;;;;;1999.90;999.90;;;5.20;99.90;;;;;;5090772;28;20052;-87
2020/12/04 03:19:40;;;;;;;1999.90;999.90;;;5.20;99.90;;;;;;5092603;28;20123;-86
2020/12/04 03:22:08;;;;;;;1999.90;999.90;;;5.20;99.90;;;;;;5092004;28;20102;-86
2020/12/04 03:24:35;;;;;;;1999.90;999.90;;;5.20;99.90;;;;;;5092283;28;20052;-86
2020/12/04 03:27:02;;;;;;;1999.90;999.90;;;5.20;99.90;;;;;;5092712;28;20056;-86
2020/12/04 03:29:30;;;;;;;1999.90;999.90;;;5.30;99.90;;;;;;5090704;28;20044;-86
2020/12/04 03:31:56;;;;;;;1999.90;999.90;;;5.20;99.90;;;;;;5092251;28;20150;-84
2020/12/04 03:34:23;;;;;;;1999.90;999.90;;;5.30;99.90;;;;;;5093779;28;20075;-86
2020/12/04 03:36:50;;;;;;;1999.90;999.90;;;5.20;99.90;;;;;;5096424;28;20441;-86
2020/12/04 03:39:17;;;;;;;1999.90;999.90;;;5.20;99.90;;;;;;5094140;28;20042;-86
2020/12/04 03:41:44;;;;;;;1999.90;999.90;;;5.20;99.90;;;;;;5083083;28;20139;-87
2020/12/04 03:44:11;;;;;;;1999.90;999.90;;;5.20;99.90;;;;;;5096297;28;20614;-86
2020/12/04 03:46:39;;;;;;;1999.90;999.90;;;5.20;99.90;;;;;;5096310;28;20055;-86
2020/12/04 03:49:06;;;;;;;1999.90;999.90;;;5.20;99.90;;;;;;5096198;28;20130;-86
2020/12/04 03:51:32;;;;;;;1999.90;999.90;;;5.20;99.90;;;;;;5081356;28;20058;-85
2020/12/04 03:53:59;;;;;;;1999.90;999.90;;;5.20;99.90;;;;;;5095691;28;20419;-86
2020/12/04 03:56:26;;;;;;;1999.90;999.90;;;5.20;99.90;;;;;;5096177;28;20151;-86
2020/12/04 03:58:53;;;;;;;1999.90;999.90;;;5.20;99.90;;;;;;5094739;28;20494;-86
2020/12/04 04:01:20;;;;;;;1999.90;999.90;;;5.20;99.90;;;;;;5089877;28;20127;-86
2020/12/04 04:03:48;;;;;;;1999.90;999.90;;;5.20;99.90;;;;;;5096056;28;20524;-87
2020/12/04 04:06:15;;;;;;;1999.90;999.90;;;5.30;99.90;;;;;;5095249;28;20130;-86
2020/12/04 04:08:42;;;;;;;1999.90;999.90;;;5.30;99.90;;;;;;5094622;28;20056;-86
2020/12/04 04:11:09;;;;;;;1999.90;999.90;;;5.30;99.90;;;;;;5095855;28;20144;-86
2020/12/04 04:13:36;;;;;;;1999.90;999.90;;;5.30;99.90;;;;;;5094887;28;20062;-85
2020/12/04 04:16:05;;;;;;;1999.90;999.90;;;5.30;99.90;;;;;;5095776;28;20067;-86
2020/12/04 04:18:32;;;;;;;1999.90;999.90;;;5.30;99.90;;;;;;5095740;28;20059;-86
2020/12/04 04:21:00;;;;;;;1999.90;999.90;;;5.30;99.90;;;;;;5095047;28;20058;-86
2020/12/04 04:23:27;;;;;;;1999.90;999.90;;;5.30;99.90;;;;;;5095412;28;20054;-85
2020/12/04 04:25:54;;;;;;;1999.90;999.90;;;5.30;99.90;;;;;;5095339;28;20119;-86
2020/12/04 04:28:21;;;;;;;1999.90;999.90;;;5.30;99.90;;;;;;5094508;28;20052;-86
2020/12/04 04:30:48;;;;;;;1999.90;999.90;;;5.30;99.90;;;;;;5093461;28;20044;-86
2020/12/04 04:33:15;;;;;;;1999.90;999.90;;;5.30;99.90;;;;;;5095217;28;20131;-86
2020/12/04 04:35:42;;;;;;;1999.90;999.90;;;5.30;99.90;;;;;;5094981;28;20048;-85
2020/12/04 04:38:10;;;;;;;1999.90;999.90;;;5.30;99.90;;;;;;5092781;28;20066;-86
2020/12/04 04:40:37;;;;;;;1999.90;999.90;;;5.30;99.90;;;;;;5094812;28;20048;-85
2020/12/04 04:43:08;;;;;;;1999.90;999.90;;;5.30;99.90;;;;;;5092985;28;20055;-86
2020/12/04 04:45:36;;;;;;;1999.90;999.90;;;5.30;99.90;;;;;;5093493;28;20482;-86
2020/12/04 04:48:10;;;;;;;1999.90;999.90;;;5.40;99.90;;;;;;5094563;28;20127;-86
2020/12/04 04:50:38;;;;;;;1999.90;999.90;;;5.30;99.90;;;;;;5094213;28;20059;-86
2020/12/04 04:53:05;;;;;;;1999.90;999.90;;;5.40;99.90;;;;;;5093750;28;20639;-86
2020/12/04 04:55:33;;;;;;;1999.90;999.90;;;5.40;99.90;;;;;;5094248;28;20171;-86
2020/12/04 04:58:05;;;;;;;1999.90;999.90;;;5.40;99.90;;;;;;5094282;28;20048;-86
2020/12/04 05:00:32;;;;;;;1999.90;999.90;;;5.50;99.90;;;;;;5093484;28;20620;-86
2020/12/04 05:02:59;;;;;;;1999.90;999.90;;;5.50;99.90;;;;;;5092851;28;20054;-85
2020/12/04 05:05:41;;;;;;;1999.90;999.90;;;5.40;99.90;;;;;;5094084;28;20074;-86
2020/12/04 05:08:13;;;;;;;1999.90;999.90;;;5.50;99.90;;;;;;5092145;28;20085;-86
2020/12/04 05:10:41;;;;;;;1999.90;999.90;;;5.50;99.90;;;;;;5093578;28;20075;-85
2020/12/04 05:13:08;;;;;;;1999.90;999.90;;;5.50;99.90;;;;;;5093994;28;20075;-85
2020/12/04 05:15:35;;;;;;;1999.90;999.90;;;5.50;99.90;;;;;;5092521;28;20052;-86
2020/12/04 05:18:10;;;;;;;1999.90;999.90;;;5.50;99.90;;;;;;5094383;28;20513;-86
2020/12/04 05:20:39;;;;;;;1999.90;999.90;;;5.50;99.90;;;;;;5093236;28;20060;-85
2020/12/04 05:23:06;;;;;;;1999.90;999.90;;;5.50;99.90;;;;;;5097136;28;20131;-86
2020/12/04 05:25:38;;;;;;;1999.90;999.90;;;5.50;99.90;;;;;;5102938;28;20047;-86
2020/12/04 05:28:11;;;;;;;1999.90;999.90;;;5.50;99.90;;;;;;5101483;28;20127;-85
2020/12/04 05:30:39;;;;;;;1999.90;999.90;;;5.60;99.90;;;;;;5094906;28;20044;-86
2020/12/04 05:33:07;;;;;;;1999.90;999.90;;;5.60;99.90;;;;;;5094391;28;20142;-86
2020/12/04 05:35:36;;;;;;;1999.90;999.90;;;5.60;99.90;;;;;;5091717;28;20485;-85
2020/12/04 05:38:12;;;;;;;1999.90;999.90;;;5.60;99.90;;;;;;5091273;28;20151;-86
2020/12/04 05:40:41;;;;;;;1999.90;999.90;;;5.60;99.90;;;;;;5082034;28;20524;-86
2020/12/04 05:43:08;;;;;;;1999.90;999.90;;;5.60;99.90;;;;;;5093653;28;20131;-86
2020/12/04 05:45:36;;;;;;;1999.90;999.90;;;5.60;99.90;;;;;;5093038;28;20067;-86
2020/12/04 05:48:12;;;;;;;1999.90;999.90;;;5.50;99.90;;;;;;5093568;28;20047;-85
2020/12/04 05:50:41;;;;;;;1999.90;999.90;;;5.50;99.90;;;;;;5093377;28;20134;-86
2020/12/04 05:53:08;;;;;;;1999.90;999.90;;;5.50;99.90;;;;;;5092063;28;20047;-85
2020/12/04 05:55:36;;;;;;;1999.90;999.90;;;5.60;99.90;;;;;;5093156;28;20051;-85
2020/12/04 05:58:08;;;;;;;1999.90;999.90;;;5.60;99.90;;;;;;5092503;28;20075;-85
2020/12/04 06:00:36;;;;;;;1999.90;999.90;;;5.50;99.90;;;;;;5089281;28;20156;-85
2020/12/04 06:03:05;;;;;;;1999.90;999.90;;;5.60;99.90;;;;;;5092747;28;20051;-85
2020/12/04 06:05:32;;;;;;;1999.90;999.90;;;5.50;99.90;;;;;;5092289;28;20079;-86
2020/12/04 06:08:01;;;;;;;1999.90;999.90;;;5.50;99.90;;;;;;5091714;28;20829;-85
2020/12/04 06:10:29;;;;;;;1999.90;999.90;;;5.50;99.90;;;;;;5092302;28;20075;-85
2020/12/04 06:12:57;;;;;;;1999.90;999.90;;;5.50;99.90;;;;;;5092016;28;20052;-85
2020/12/04 06:15:25;;;;;;;1999.90;999.90;;;5.60;99.90;;;;;;5091072;28;20070;-86
2020/12/04 06:18:02;;;;;;;1999.90;999.90;;;5.60;99.90;;;;;;5082543;28;20058;-86
2020/12/04 06:20:29;;;;;;;1999.90;999.90;;;5.60;99.90;;;;;;5092047;28;20076;-85
2020/12/04 06:23:07;;;;;;;1999.90;999.90;;;5.60;99.90;;;;;;5091271;28;20815;-86
2020/12/04 06:25:57;;;;;;;1999.90;999.90;;;5.60;99.90;;;;;;5092066;28;20055;-86
2020/12/04 06:28:26;;;;;;;1999.90;999.90;;;5.60;99.90;;;;;;5083190;28;20052;-85
2020/12/04 06:30:59;;;;;;;1999.90;999.90;;;5.60;99.90;;;;;;5091231;28;20056;-85
2020/12/04 06:33:55;;;;;;;1999.90;999.90;;;5.60;99.90;;;;;;5089197;28;20060;-86
2020/12/04 06:36:39;;;;;;;1999.90;999.90;;;5.70;99.90;;;;;;5087910;28;20052;-85
2020/12/04 06:39:07;;;;;;;1999.90;999.90;;;5.70;99.90;;;;;;5085225;28;20066;-86
2020/12/04 06:41:37;;;;;;;1999.90;999.90;;;5.70;99.90;;;;;;5092510;28;20066;-86
2020/12/04 06:44:06;;;;;;;1999.90;999.90;;;5.70;99.90;;;;;;5086644;28;20127;-86
2020/12/04 06:46:38;;;;;;;1999.90;999.90;;;5.80;99.90;;;;;;5089517;28;20127;-86
2020/12/04 06:49:23;;;;;;;1999.90;999.90;;;5.70;99.90;;;;;;5092247;28;20094;-86
2020/12/04 06:51:59;;;;;;;1999.90;999.90;;;5.80;99.90;;;;;;5092096;28;20147;-86
2020/12/04 06:54:26;;;;;;;1999.90;999.90;;;5.80;99.90;;;;;;5092230;28;20102;-86
2020/12/04 06:56:54;;;;;;;1999.90;999.90;;;5.80;99.90;;;;;;5092633;28;20056;-86
2020/12/04 06:59:23;;;;;;;1999.90;999.90;;;5.80;99.90;;;;;;5092480;28;20226;-85
2020/12/04 07:01:50;;;;;;;1999.90;999.90;;;5.90;99.90;;;;;;5081214;28;20079;-86
2020/12/04 07:04:18;;;;;;;1999.90;999.90;;;5.90;99.90;;;;;;5092320;28;20086;-86
2020/12/04 07:06:45;;;;;;;1999.90;999.90;;;5.90;99.90;;;;;;5090927;28;20138;-86
2020/12/04 07:09:13;;;;;;;1999.90;999.90;;;5.90;99.90;;;;;;5095049;28;20058;-86
2020/12/04 07:11:40;;;;;;;1999.90;999.90;;;6.00;99.90;;;;;;5097503;28;20052;-86
2020/12/04 07:14:08;;;;;;;1999.90;999.90;;;6.00;99.90;;;;;;5095611;28;20082;-86
2020/12/04 07:16:40;;;;;;;1999.90;999.90;;;6.00;99.90;;;;;;5095553;28;20490;-86
2020/12/04 07:19:07;;;;;;;1999.90;999.90;;;6.00;99.90;;;;;;5096553;28;20401;-86
2020/12/04 07:21:37;;;;;;;1999.90;999.90;;;6.00;99.90;;;;;;5096857;28;20058;-87
2020/12/04 07:24:05;;;;;;;1999.90;999.90;;;6.00;99.90;;;;;;5095551;28;20048;-87
2020/12/04 07:26:33;;;;;;;1999.90;999.90;;;6.00;99.90;;;;;;5096472;28;20427;-86
2020/12/04 07:29:00;;;;;;;1999.90;999.90;;;6.00;99.90;;;;;;5095401;28;20054;-86
2020/12/04 07:31:27;;;;;;;1999.90;999.90;;;6.00;99.90;;;;;;5094367;28;20052;-86
2020/12/04 07:33:56;;;;;;;1999.90;999.90;;;6.00;99.90;;;;;;5095418;28;20132;-86
2020/12/04 07:36:24;;;;;;;1999.90;999.90;;;6.00;99.90;;;;;;5091105;28;20131;-86
2020/12/04 07:38:54;;;;;;;1999.90;999.90;;;6.00;99.90;;;;;;5095270;28;20062;-86
2020/12/04 07:41:26;;;;;;;1999.90;999.90;;;6.00;99.90;;;;;;5096294;28;20164;-86
2020/12/04 07:43:58;;;;;;;1999.90;999.90;;;6.00;99.90;;;;;;5095869;28;20127;-89
2020/12/04 07:46:25;;;;;;;1999.90;999.90;;;6.00;99.90;;;;;;5094205;28;20048;-90
2020/12/04 07:49:03;;;;;;;1999.90;999.90;;;6.00;99.90;;;;;;5095747;28;20084;-90
2020/12/04 07:51:32;;;;;;;1999.90;999.90;;;6.00;99.90;;;;;;5094447;28;20044;-89
2020/12/04 07:54:02;;;;;;;1999.90;999.90;;;6.00;99.90;;;;;;5095087;28;20051;-89
2020/12/04 07:56:30;;;;;;;1999.90;999.90;;;6.00;99.90;;;;;;5096129;28;20050;-89
2020/12/04 07:59:03;;;;;;;1999.90;999.90;;;6.00;99.90;;;;;;5091930;28;20131;-89
2020/12/04 08:01:31;;;;;;;1999.90;999.90;;;6.00;99.90;;;;;;5095978;28;20053;-89
2020/12/04 08:03:59;;;;;;;1999.90;999.90;;;6.00;99.90;;;;;;5084303;28;20149;-89
2020/12/04 08:06:27;;;;;;;1999.90;999.90;;;6.10;99.90;;;;;;5099737;28;20043;-89
2020/12/04 08:09:11;;;;;;;1999.90;999.90;;;6.10;99.90;;;;;;5095029;28;20044;-88
2020/12/04 08:11:39;;;;;;;1999.90;999.90;;;6.10;99.90;;;;;;5091866;28;20043;-90
2020/12/04 08:14:10;;;;;;;1999.90;999.90;;;6.20;99.90;;;;;;5094941;28;20078;-89
2020/12/04 08:16:38;;;;;;;1999.90;999.90;;;6.20;99.90;;;;;;5090439;28;20063;-89
2020/12/04 08:19:10;;;;;;;1999.90;999.90;;;6.20;99.90;;;;;;5094712;28;20047;-89
2020/12/04 08:21:56;;;;;;;1999.90;999.90;;;6.30;99.90;;;;;;5095646;28;20059;-89
2020/12/04 08:24:25;;;;;;;1999.90;999.90;;;6.30;99.90;;;;;;5095365;28;20454;-89
2020/12/04 08:27:04;;;;;;;1999.90;999.90;;;6.20;99.90;;;;;;5095189;28;20060;-89
2020/12/04 08:29:32;;;;;;;1999.90;999.90;;;6.30;99.90;;;;;;5093120;28;20059;-89
2020/12/04 08:32:10;;;;;;;1999.90;999.90;;;6.30;99.90;;;;;;5086137;28;20078;-89
2020/12/04 08:34:38;;;;;;;1999.90;999.90;;;6.30;99.90;;;;;;5093579;28;20056;-89
2020/12/04 08:37:07;;;;;;;1999.90;999.90;;;6.30;99.90;;;;;;5093801;28;20113;-89
2020/12/04 08:39:37;;;;;;;1999.90;999.90;;;6.40;99.90;;;;;;5092942;28;20052;-89
2020/12/04 08:42:31;;;;;;;1999.90;999.90;;;6.40;99.90;;;;;;5093445;28;20048;-89
2020/12/04 08:45:06;;;;;;;1999.90;999.90;;;6.40;99.90;;;;;;5093606;28;20048;-89
2020/12/04 08:47:36;;;;;;;1999.90;999.90;;;6.50;99.90;;;;;;5081411;28;20071;-89
2020/12/04 08:50:07;;;;;;;1999.90;999.90;;;6.50;99.90;;;;;;5092821;28;20048;-89
2020/12/04 08:52:46;;;;;;;1999.90;999.90;;;6.50;99.90;;;;;;5093536;28;20105;-89
2020/12/04 08:55:16;;;;;;;1999.90;999.90;;;6.60;99.90;;;;;;5092639;28;20097;-89
2020/12/04 08:57:44;;;;;;;1999.90;999.90;;;6.60;99.90;;;;;;5091303;28;20087;-89
2020/12/04 09:00:13;;;;;;;1999.90;999.90;;;6.60;99.90;;;;;;5091140;28;20047;-88
2020/12/04 09:02:40;;;;;;;1999.90;999.90;;;6.60;99.90;;;;;;5092554;28;20130;-89
2020/12/04 09:05:13;;;;;;;1999.90;999.90;;;6.70;99.90;;;;;;5092392;28;20109;-89
2020/12/04 09:07:40;;;;;;;1999.90;999.90;;;6.70;99.90;;;;;;5091638;28;20102;-89
2020/12/04 09:10:09;;;;;;;1999.90;999.90;;;6.70;99.90;;;;;;5092948;28;20147;-89
2020/12/04 09:12:37;;;;;;;1999.90;999.90;;;6.70;99.90;;;;;;5090859;28;20538;-89
2020/12/04 09:15:06;;;;;;;1999.90;999.90;;;6.70;99.90;;;;;;5091004;28;20114;-89
2020/12/04 09:17:33;;;;;;;1999.90;999.90;;;6.70;99.90;;;;;;5093353;28;20048;-89
2020/12/04 09:20:00;;;;;;;1999.90;999.90;;;6.70;99.90;;;;;;5092039;28;20044;-89
2020/12/04 09:22:27;;;;;;;1999.90;999.90;;;6.70;99.90;;;;;;5089930;28;20442;-89
2020/12/04 09:24:54;;;;;;;1999.90;999.90;;;6.80;99.90;;;;;;5092454;28;20101;-89
2020/12/04 09:27:21;;;;;;;1999.90;999.90;;;6.70;99.90;;;;;;5092168;28;20123;-88
2020/12/04 09:29:49;;;;;;;1999.90;999.90;;;6.70;99.90;;;;;;5089874;28;20135;-89
2020/12/04 09:32:17;;;;;;;1999.90;999.90;;;6.70;99.90;;;;;;5091246;28;20158;-89
2020/12/04 09:34:45;;;;;;;1999.90;999.90;;;6.80;99.90;;;;;;5092411;28;20122;-90
2020/12/04 09:37:16;;;;;;;1999.90;999.90;;;6.80;99.90;;;;;;5092445;28;20116;-89
2020/12/04 09:39:44;;;;;;;1999.90;999.90;;;6.80;99.90;;;;;;5092097;28;20119;-90
2020/12/04 09:42:13;;;;;;;1999.90;999.90;;;6.80;99.90;;;;;;5091638;28;20689;-89
2020/12/04 09:44:40;;;;;;;1999.90;999.90;;;6.80;99.90;;;;;;5090799;28;20048;-84
2020/12/04 09:47:09;;;;;;;1999.90;999.90;;;6.90;99.90;;;;;;5091299;28;20822;-85
2020/12/04 09:49:36;;;;;;;1999.90;999.90;;;6.90;99.90;;;;;;5089994;28;20378;-84
2020/12/04 09:52:04;;;;;;;1999.90;999.90;;;6.90;99.90;;;;;;5091076;28;20194;-84
2020/12/04 09:54:35;;;;;;;1999.90;999.90;;;7.00;99.90;;;;;;5090937;28;20076;-89
2020/12/04 09:57:04;;;;;;;1999.90;999.90;;;7.00;99.90;;;;;;5091345;28;20059;-89
2020/12/04 09:59:32;;;;;;;1999.90;999.90;;;7.00;99.90;;;;;;5092273;28;20130;-89
2020/12/04 10:01:59;;;;;;;1999.90;999.90;;;7.00;99.90;;;;;;5076686;28;20054;-90
2020/12/04 10:04:28;;;;;;;1999.90;999.90;;;7.10;99.90;;;;;;5091740;28;20604;-89
2020/12/04 10:06:55;;;;;;;1999.90;999.90;;;7.10;99.90;;;;;;5090820;28;20062;-90
2020/12/04 10:09:23;;;;;;;1999.90;999.90;;;7.20;99.90;;;;;;5092165;28;20064;-89
2020/12/04 10:11:51;;;;;;;1999.90;999.90;;;7.10;99.90;;;;;;5087633;28;20056;-89
2020/12/04 10:14:18;;;;;;;1999.90;999.90;;;7.20;99.90;;;;;;5085608;28;20143;-89
2020/12/04 10:16:47;;;;;;;1999.90;999.90;;;7.20;99.90;;;;;;5085832;28;20085;-88
2020/12/04 10:19:16;;;;;;;1999.90;999.90;;;7.20;99.90;;;;;;5090172;28;20123;-87
2020/12/04 10:21:45;;;;;;;1999.90;999.90;;;7.20;99.90;;;;;;5091055;28;20150;-88
2020/12/04 10:24:13;;;;;;;1999.90;999.90;;;7.20;99.90;;;;;;5091092;28;20494;-88
2020/12/04 10:26:42;;;;;;;1999.90;999.90;;;7.30;99.90;;;;;;5082379;28;20054;-87
2020/12/04 10:29:09;;;;;;;1999.90;999.90;;;7.30;99.90;;;;;;5089107;28;20155;-87
2020/12/04 10:31:36;;;;;;;1999.90;999.90;;;7.30;99.90;;;;;;5084134;28;20489;-87
2020/12/04 10:34:03;;;;;;;1999.90;999.90;;;7.30;99.90;;;;;;5089791;28;20119;-88
2020/12/04 10:36:32;;;;;;;1999.90;999.90;;;7.30;99.90;;;;;;5090432;28;20059;-88
2020/12/04 10:39:00;;;;;;;1999.90;999.90;;;7.30;99.90;;;;;;5090098;28;20052;-87
2020/12/04 10:41:31;;;;;;;1999.90;999.90;;;7.30;99.90;;;;;;5090068;28;20072;-88
2020/12/04 10:43:58;;;;;;;1999.90;999.90;;;7.40;99.90;;;;;;5090398;28;20056;-88
2020/12/04 10:46:25;;;;;;;1999.90;999.90;;;7.30;99.90;;;;;;5090500;28;20054;-87
2020/12/04 10:48:52;;;;;;;1999.90;999.90;;;7.30;99.90;;;;;;5090230;28;20585;-88
2020/12/04 10:51:20;;;;;;;1999.90;999.90;;;7.40;99.90;;;;;;5090448;28;20059;-87
2020/12/04 10:53:47;;;;;;;1999.90;999.90;;;7.40;99.90;;;;;;5078738;28;20528;-86
2020/12/04 10:56:17;;;;;;;1999.90;999.90;;;7.40;99.90;;;;;;5090614;28;20074;-89
2020/12/04 10:58:44;;;;;;;1999.90;999.90;;;7.40;99.90;;;;;;5090919;28;20052;-89
2020/12/04 11:01:12;;;;;;;1999.90;999.90;;;7.40;99.90;;;;;;5091063;28;20041;-89
2020/12/04 11:05:27;;;;;;;1999.90;999.90;;;7.40;99.90;;;;;;5089464;28;20145;-89
2020/12/04 11:06:29;;;;;;;1999.90;999.90;;;7.40;99.90;;;;;;5090300;28;20052;-89
2020/12/04 11:08:55;;;;;;;1999.90;999.90;;;7.40;99.90;;;;;;5090100;28;20139;-89
2020/12/04 11:11:27;;;;;;;1999.90;999.90;;;7.40;99.90;;;;;;5090800;28;20075;-89
2020/12/04 11:13:54;;;;;;;1999.90;999.90;;;7.40;99.90;;;;;;5087913;28;20050;-89
2020/12/04 11:16:21;;;;;;;1999.90;999.90;;;7.50;99.90;;;;;;5090970;28;20068;-89
2020/12/04 11:18:48;;;;;;;1999.90;999.90;;;7.50;99.90;;;;;;5090407;28;20440;-90
2020/12/04 11:21:15;;;;;;;1999.90;999.90;;;7.50;99.90;;;;;;5090751;28;20050;-89
2020/12/04 11:23:42;;;;;;;1999.90;999.90;;;7.60;99.90;;;;;;5090828;28;20180;-89
2020/12/04 11:26:09;;;;;;;1999.90;999.90;;;7.60;99.90;;;;;;5076811;28;20078;-90
2020/12/04 11:28:37;;;;;;;1999.90;999.90;;;7.60;99.90;;;;;;5090473;28;20160;-89
2020/12/04 11:31:04;;;;;;;1999.90;999.90;;;7.60;99.90;;;;;;5090385;28;20047;-89
2020/12/04 11:33:31;;;;;;;1999.90;999.90;;;7.70;99.90;;;;;;5090604;28;20040;-89
2020/12/04 11:35:58;;;;;;;1999.90;999.90;;;7.70;99.90;;;;;;5090205;28;20147;-89
2020/12/04 11:38:25;;;;;;;1999.90;999.90;;;7.80;99.90;;;;;;5091106;28;20451;-90
2020/12/04 11:40:52;;;;;;;1999.90;999.90;;;7.70;99.90;;;;;;5090070;28;20482;-89
2020/12/04 11:43:19;;;;;;;1999.90;999.90;;;7.80;99.90;;;;;;5088986;28;20507;-90
2020/12/04 11:45:47;;;;;;;1999.90;999.90;;;7.80;99.90;;;;;;5088753;28;20044;-89
2020/12/04 11:48:14;;;;;;;1999.90;999.90;;;7.80;99.90;;;;;;5077092;28;20091;-89
2020/12/04 11:50:41;;;;;;;1999.90;999.90;;;7.80;99.90;;;;;;5090204;28;20044;-89
2020/12/04 11:53:08;;;;;;;1999.90;999.90;;;7.80;99.90;;;;;;5090166;28;20123;-90
2020/12/04 11:55:35;;;;;;;1999.90;999.90;;;7.90;99.90;;;;;;5094264;28;20115;-89
2020/12/04 11:58:02;;;;;;;1999.90;999.90;;;7.90;99.90;;;;;;5093709;28;20172;-90
2020/12/04 12:00:30;;;;;;;1999.90;999.90;;;7.90;99.90;;;;;;5094049;28;20093;-90
2020/12/04 12:02:58;;;;;;;1999.90;999.90;;;7.90;99.90;;;;;;5094184;28;20059;-90
2020/12/04 12:05:24;;;;;;;1999.90;999.90;;;7.90;99.90;;;;;;5093633;28;20154;-90
2020/12/04 12:07:51;;;;;;;1999.90;999.90;;;7.90;99.90;;;;;;5093731;28;20043;-89
2020/12/04 12:10:18;;;;;;;1999.90;999.90;;;7.90;99.90;;;;;;5094224;28;20131;-89
2020/12/04 12:12:45;;;;;;;1999.90;999.90;;;7.90;99.90;;;;;;5093698;28;20055;-90
2020/12/04 12:15:12;;;;;;;1999.90;999.90;;;7.90;99.90;;;;;;5093565;28;20056;-90